Time;durP1;ratioP1;P1;durP2;ratioP2;P2;SDS_P1;SDS_P2;PMS_P1;PMS_P2;Temp;Humidity;BMP_temperature;BMP_pressure;BME280_temperature;BME280_humidity;BME280_pressure;Samples;Min_cycle;Max_cycle;Signal;HPM_P1;HPM_P2
2022/04/08 00:01:06;;;;;;;0.20;0.20;;;12.10;5.70;;;;;;5074695;28;20086;-68
2022/04/08 00:03:32;;;;;;;0.10;0.10;;;12.10;4.50;;;;;;5075081;28;20083;-69
2022/04/08 00:05:58;;;;;;;0.10;0.10;;;12.10;5.20;;;;;;5074636;28;20036;-69
2022/04/08 00:08:24;;;;;;;0.10;0.10;;;12.10;7.50;;;;;;5074888;28;20379;-69
2022/04/08 00:10:50;;;;;;;0.10;0.10;;;12.10;9.60;;;;;;5074339;28;20037;-69
2022/04/08 00:13:17;;;;;;;0.10;0.10;;;12.10;8.20;;;;;;5074857;28;20037;-69
2022/04/08 00:15:43;;;;;;;0.05;0.05;;;12.10;5.80;;;;;;5074691;28;20059;-69
2022/04/08 00:18:09;;;;;;;0.10;0.10;;;12.00;8.70;;;;;;5074754;28;20589;-69
2022/04/08 00:20:35;;;;;;;0.10;0.10;;;12.10;11.80;;;;;;5074951;28;20490;-69
2022/04/08 00:23:03;;;;;;;0.10;0.10;;;12.10;10.50;;;;;;5074917;28;20043;-69
2022/04/08 00:25:29;;;;;;;0.10;0.10;;;12.10;12.30;;;;;;5074882;28;20040;-69
2022/04/08 00:27:55;;;;;;;0.10;0.10;;;12.10;11.40;;;;;;5074732;28;20041;-69
2022/04/08 00:30:21;;;;;;;0.22;0.22;;;12.10;5.70;;;;;;5074775;28;20033;-69
2022/04/08 00:32:47;;;;;;;0.10;0.10;;;12.10;8.20;;;;;;5074415;28;20041;-69
2022/04/08 00:35:13;;;;;;;0.10;0.10;;;12.00;11.50;;;;;;5074794;28;20036;-69
2022/04/08 00:37:40;;;;;;;0.32;0.10;;;12.00;12.60;;;;;;5074296;28;20125;-69
2022/04/08 00:40:07;;;;;;;0.10;0.10;;;12.00;12.90;;;;;;5074632;28;20042;-69
2022/04/08 00:42:33;;;;;;;0.10;0.10;;;12.00;12.70;;;;;;5074861;28;20040;-69
2022/04/08 00:44:59;;;;;;;0.10;0.10;;;11.90;16.00;;;;;;5074339;28;20082;-69
2022/04/08 00:47:25;;;;;;;0.10;0.10;;;11.90;20.00;;;;;;5074694;28;20040;-69
2022/04/08 00:49:54;;;;;;;0.10;0.10;;;11.90;18.30;;;;;;5074969;28;20037;-69
2022/04/08 00:52:20;;;;;;;0.05;0.05;;;12.00;19.60;;;;;;5074534;28;20123;-69
2022/04/08 00:54:47;;;;;;;0.10;0.10;;;12.00;15.00;;;;;;5074469;28;20043;-69
2022/04/08 00:57:13;;;;;;;0.10;0.10;;;12.00;13.50;;;;;;5074670;28;20059;-69
2022/04/08 00:59:39;;;;;;;0.10;0.10;;;11.90;21.30;;;;;;5074129;28;20029;-69
2022/04/08 01:02:05;;;;;;;0.10;0.10;;;12.10;8.70;;;;;;5074604;28;20345;-69
2022/04/08 01:04:31;;;;;;;0.10;0.10;;;12.10;7.30;;;;;;5074363;28;20040;-69
2022/04/08 01:06:57;;;;;;;0.10;0.10;;;12.00;10.70;;;;;;5074301;28;20048;-69
2022/04/08 01:09:24;;;;;;;0.10;0.10;;;12.00;14.40;;;;;;5074271;28;20040;-69
2022/04/08 01:11:50;;;;;;;0.10;0.10;;;11.90;18.90;;;;;;5073769;28;20112;-68
2022/04/08 01:14:16;;;;;;;0.10;0.10;;;11.90;15.30;;;;;;5073754;28;20067;-68
2022/04/08 01:16:43;;;;;;;0.10;0.10;;;11.90;20.70;;;;;;5073495;28;20044;-69
2022/04/08 01:19:09;;;;;;;0.10;0.10;;;11.90;18.30;;;;;;5073945;28;20033;-69
2022/04/08 01:21:35;;;;;;;0.20;0.20;;;11.90;13.40;;;;;;5073948;28;20066;-68
2022/04/08 01:24:02;;;;;;;0.10;0.10;;;11.90;18.80;;;;;;5077536;28;20029;-68
2022/04/08 01:26:29;;;;;;;0.10;0.10;;;11.90;18.60;;;;;;5077806;28;20041;-69
2022/04/08 01:28:56;;;;;;;0.10;0.10;;;11.90;11.50;;;;;;5077463;28;20064;-69
2022/04/08 01:31:24;;;;;;;0.10;0.10;;;11.90;14.80;;;;;;5077479;28;20036;-68
2022/04/08 01:33:52;;;;;;;0.10;0.10;;;12.00;9.30;;;;;;5077145;28;20028;-69
2022/04/08 01:36:18;;;;;;;0.10;0.10;;;12.00;13.40;;;;;;5077010;28;20526;-69
2022/04/08 01:38:44;;;;;;;0.10;0.10;;;12.10;9.10;;;;;;5077052;28;20036;-69
2022/04/08 01:41:10;;;;;;;0.10;0.10;;;12.10;10.90;;;;;;5076760;28;20510;-69
2022/04/08 01:43:36;;;;;;;0.10;0.10;;;12.10;11.80;;;;;;5077536;28;20043;-69
2022/04/08 01:46:02;;;;;;;0.10;0.10;;;12.00;12.30;;;;;;5076723;28;20497;-69
2022/04/08 01:48:28;;;;;;;0.10;0.10;;;12.10;13.20;;;;;;5076905;28;20044;-69
2022/04/08 01:50:54;;;;;;;0.10;0.10;;;12.10;14.80;;;;;;5077225;28;20075;-69
2022/04/08 01:53:20;;;;;;;0.10;0.10;;;12.10;14.50;;;;;;5077338;28;20479;-69
2022/04/08 01:55:45;;;;;;;0.10;0.10;;;12.10;8.30;;;;;;5077188;28;20090;-69
2022/04/08 01:58:11;;;;;;;0.10;0.10;;;12.20;1.00;;;;;;5076601;28;20048;-69
2022/04/08 02:00:38;;;;;;;0.10;0.10;;;12.40;1.00;;;;;;5076853;28;20033;-69
2022/04/08 02:03:04;;;;;;;0.20;0.10;;;12.30;1.00;;;;;;5076785;28;20467;-69
2022/04/08 02:05:31;;;;;;;0.10;0.10;;;12.30;1.00;;;;;;5076831;28;20048;-69
2022/04/08 02:07:57;;;;;;;0.10;0.10;;;12.40;1.00;;;;;;5075812;28;20487;-69
2022/04/08 02:10:25;;;;;;;0.10;0.10;;;12.40;1.00;;;;;;5077381;28;20120;-69
2022/04/08 02:12:51;;;;;;;0.10;0.10;;;12.40;1.00;;;;;;5076617;28;20029;-69
2022/04/08 02:15:21;;;;;;;0.17;0.17;;;12.40;1.00;;;;;;5076794;28;20078;-69
2022/04/08 02:17:47;;;;;;;0.10;0.10;;;12.30;1.00;;;;;;5076685;28;20044;-69
2022/04/08 02:20:12;;;;;;;0.17;0.17;;;12.40;1.00;;;;;;5077212;28;20488;-69
2022/04/08 02:22:38;;;;;;;0.10;0.10;;;12.30;1.00;;;;;;5076808;28;20041;-69
2022/04/08 02:25:05;;;;;;;0.10;0.10;;;12.30;1.00;;;;;;5076397;28;20032;-69
2022/04/08 02:27:32;;;;;;;0.10;0.10;;;12.40;1.00;;;;;;5076427;28;20502;-69
2022/04/08 02:29:59;;;;;;;0.10;0.10;;;12.30;1.00;;;;;;5076517;28;20549;-69
2022/04/08 02:32:25;;;;;;;0.10;0.10;;;12.40;1.00;;;;;;5076366;28;20036;-68
2022/04/08 02:34:52;;;;;;;0.10;0.10;;;12.40;1.00;;;;;;5076595;28;20039;-69
2022/04/08 02:37:18;;;;;;;0.10;0.10;;;12.40;1.00;;;;;;5076440;28;20075;-68
2022/04/08 02:39:44;;;;;;;0.00;0.00;;;12.30;1.00;;;;;;5076462;28;20053;-69
2022/04/08 02:42:10;;;;;;;0.10;0.10;;;12.50;1.00;;;;;;5076772;28;20355;-69
2022/04/08 02:44:36;;;;;;;0.10;0.10;;;12.40;1.00;;;;;;5076243;28;20040;-69
2022/04/08 02:47:02;;;;;;;0.22;0.22;;;12.40;1.00;;;;;;5076343;28;20043;-69
2022/04/08 02:49:28;;;;;;;0.10;0.10;;;12.40;1.00;;;;;;5076772;28;20044;-69
2022/04/08 02:51:54;;;;;;;0.10;0.10;;;12.30;1.00;;;;;;5076255;28;20036;-69
2022/04/08 02:54:20;;;;;;;0.10;0.10;;;12.20;1.10;;;;;;5076417;28;20551;-69
2022/04/08 02:56:46;;;;;;;0.10;0.10;;;12.10;1.30;;;;;;5076354;28;20081;-69
2022/04/08 02:59:12;;;;;;;0.10;0.10;;;12.10;8.50;;;;;;5075591;28;20036;-69
2022/04/08 03:01:38;;;;;;;0.08;0.08;;;12.10;4.30;;;;;;5075593;28;20040;-69
2022/04/08 03:04:08;;;;;;;0.10;0.10;;;12.10;2.60;;;;;;5074948;28;20060;-69
2022/04/08 03:06:35;;;;;;;0.15;0.15;;;12.20;4.60;;;;;;5074384;28;20071;-69
2022/04/08 03:09:02;;;;;;;0.10;0.10;;;12.20;3.80;;;;;;5075317;28;20044;-69
2022/04/08 03:11:28;;;;;;;0.10;0.10;;;12.20;3.90;;;;;;5073159;28;20028;-68
2022/04/08 03:13:59;;;;;;;0.10;0.10;;;12.20;1.90;;;;;;5073272;28;20070;-68
2022/04/08 03:16:25;;;;;;;0.10;0.10;;;12.20;5.40;;;;;;5075489;28;20072;-69
2022/04/08 03:18:51;;;;;;;0.10;0.10;;;12.20;3.20;;;;;;5075686;28;20055;-69
2022/04/08 03:21:16;;;;;;;0.10;0.10;;;12.30;1.00;;;;;;5075129;28;20044;-68
2022/04/08 03:23:43;;;;;;;0.10;0.10;;;12.30;1.00;;;;;;5075204;28;20040;-68
2022/04/08 03:26:09;;;;;;;0.10;0.10;;;12.30;1.00;;;;;;5075147;28;20032;-68
2022/04/08 03:28:35;;;;;;;0.10;0.10;;;12.40;1.00;;;;;;5074960;28;20041;-69
2022/04/08 03:31:01;;;;;;;0.10;0.10;;;12.40;1.00;;;;;;5072779;28;20037;-68
2022/04/08 03:33:27;;;;;;;0.25;0.25;;;12.40;1.00;;;;;;5052920;28;20059;-69
2022/04/08 03:35:53;;;;;;;0.10;0.10;;;12.40;1.00;;;;;;5053414;28;20495;-69
2022/04/08 03:38:19;;;;;;;0.10;0.10;;;12.40;1.00;;;;;;5053385;28;20112;-68
2022/04/08 03:40:47;;;;;;;0.30;0.30;;;12.40;1.00;;;;;;5054099;28;20051;-68
2022/04/08 03:43:12;;;;;;;0.10;0.10;;;12.40;1.00;;;;;;5054523;28;20120;-69
2022/04/08 03:45:38;;;;;;;0.32;0.32;;;12.50;1.00;;;;;;5054120;28;20162;-68
2022/04/08 03:48:04;;;;;;;0.10;0.10;;;12.50;1.00;;;;;;5054895;28;20051;-68
2022/04/08 03:50:30;;;;;;;0.28;0.28;;;12.40;1.00;;;;;;5054511;28;20132;-68
2022/04/08 03:52:56;;;;;;;0.10;0.10;;;12.30;1.00;;;;;;5054740;28;20079;-69
2022/04/08 03:55:22;;;;;;;0.10;0.10;;;12.30;1.00;;;;;;5054759;28;20524;-68
2022/04/08 03:57:48;;;;;;;0.10;0.10;;;12.30;1.00;;;;;;5054683;28;20054;-68
2022/04/08 04:00:14;;;;;;;0.10;0.10;;;12.30;1.00;;;;;;5060303;28;20087;-68
2022/04/08 04:02:40;;;;;;;0.10;0.10;;;12.40;1.00;;;;;;5074453;28;20495;-68
2022/04/08 04:05:06;;;;;;;0.10;0.10;;;12.30;1.00;;;;;;5074955;28;20043;-68
2022/04/08 04:07:35;;;;;;;0.05;0.05;;;12.20;1.00;;;;;;5074587;28;20046;-68
2022/04/08 04:10:01;;;;;;;0.10;0.10;;;12.20;1.00;;;;;;5065673;28;20041;-68
2022/04/08 04:12:27;;;;;;;0.10;0.10;;;12.30;1.00;;;;;;5067094;28;20036;-68
2022/04/08 04:14:54;;;;;;;0.10;0.10;;;12.30;1.00;;;;;;5064536;28;20127;-68
2022/04/08 04:17:22;;;;;;;0.10;0.10;;;12.20;1.00;;;;;;5066413;28;20136;-68
2022/04/08 04:19:51;;;;;;;0.10;0.10;;;12.10;1.00;;;;;;5062509;28;20036;-68
2022/04/08 04:22:18;;;;;;;0.10;0.10;;;12.00;1.00;;;;;;5074183;28;20037;-68
2022/04/08 04:24:44;;;;;;;0.10;0.10;;;12.00;1.00;;;;;;5073458;28;20124;-69
2022/04/08 04:27:10;;;;;;;0.10;0.10;;;12.00;1.00;;;;;;5072892;28;20036;-68
2022/04/08 04:29:36;;;;;;;0.10;0.10;;;12.10;4.30;;;;;;5065496;28;20059;-68
2022/04/08 04:32:03;;;;;;;0.10;0.10;;;12.10;1.00;;;;;;5054586;28;20379;-70
2022/04/08 04:34:29;;;;;;;0.03;0.03;;;12.10;1.00;;;;;;5055030;28;20112;-68
2022/04/08 04:36:55;;;;;;;0.10;0.10;;;12.00;1.00;;;;;;5061587;28;20049;-72
2022/04/08 04:39:21;;;;;;;0.10;0.10;;;12.00;3.70;;;;;;5071632;28;20037;-69
2022/04/08 04:41:46;;;;;;;0.10;0.10;;;11.90;11.50;;;;;;5074235;28;20047;-69
2022/04/08 04:44:12;;;;;;;0.10;0.10;;;11.90;18.30;;;;;;5073375;28;20566;-70
2022/04/08 04:46:38;;;;;;;0.20;0.20;;;11.90;18.00;;;;;;5074341;28;20044;-70
2022/04/08 04:49:04;;;;;;;0.10;0.10;;;12.00;10.30;;;;;;5074522;28;20067;-70
2022/04/08 04:51:30;;;;;;;0.10;0.10;;;11.90;14.40;;;;;;5074239;28;20048;-70
2022/04/08 04:54:00;;;;;;;0.20;0.20;;;12.00;6.40;;;;;;5074424;28;20032;-70
2022/04/08 04:56:26;;;;;;;0.10;0.10;;;12.10;5.60;;;;;;5076059;28;20053;-70
2022/04/08 04:58:52;;;;;;;0.10;0.10;;;12.10;4.60;;;;;;5077861;28;20433;-70
2022/04/08 05:01:18;;;;;;;0.10;0.10;;;12.10;4.60;;;;;;5078055;28;20090;-70
2022/04/08 05:03:44;;;;;;;0.10;0.10;;;12.10;9.20;;;;;;5078100;28;20057;-69
2022/04/08 05:06:11;;;;;;;1.17;0.45;;;12.10;5.80;;;;;;5076366;28;20577;-70
2022/04/08 05:08:37;;;;;;;0.10;0.10;;;12.10;5.70;;;;;;5077920;28;20037;-70
2022/04/08 05:11:03;;;;;;;0.10;0.10;;;12.20;1.00;;;;;;5077583;28;20512;-69
2022/04/08 05:13:28;;;;;;;0.10;0.10;;;12.20;1.10;;;;;;5077709;28;20032;-69
2022/04/08 05:15:54;;;;;;;0.40;0.40;;;12.20;1.00;;;;;;5077354;28;20040;-69
2022/04/08 05:18:20;;;;;;;0.10;0.10;;;12.30;1.00;;;;;;5077896;28;20059;-69
2022/04/08 05:20:46;;;;;;;0.10;0.10;;;12.30;1.00;;;;;;5077517;28;20582;-69
2022/04/08 05:23:12;;;;;;;0.10;0.10;;;12.30;1.00;;;;;;5077346;28;20495;-69
2022/04/08 05:25:37;;;;;;;0.10;0.10;;;12.30;1.00;;;;;;5077580;28;20483;-69
2022/04/08 05:28:04;;;;;;;0.10;0.10;;;12.30;1.00;;;;;;5077560;28;20040;-70
2022/04/08 05:30:29;;;;;;;0.10;0.10;;;12.30;1.00;;;;;;5077584;28;20036;-69
2022/04/08 05:32:56;;;;;;;0.10;0.10;;;12.30;1.00;;;;;;5074948;28;20069;-69
2022/04/08 05:35:21;;;;;;;0.17;0.17;;;12.30;1.00;;;;;;5069923;28;20041;-70
2022/04/08 05:37:48;;;;;;;0.20;0.20;;;12.30;1.00;;;;;;5075322;28;20044;-70
2022/04/08 05:40:21;;;;;;;0.10;0.10;;;12.30;1.00;;;;;;5076821;28;20051;-70
2022/04/08 05:42:48;;;;;;;0.15;0.15;;;12.20;1.00;;;;;;5074543;28;20040;-70
2022/04/08 05:45:16;;;;;;;0.10;0.10;;;12.20;1.00;;;;;;5076176;28;20079;-70
2022/04/08 05:47:43;;;;;;;0.20;0.20;;;12.20;1.80;;;;;;5057265;28;20145;-70
2022/04/08 05:50:09;;;;;;;0.10;0.10;;;12.20;1.00;;;;;;5075177;28;20455;-70
2022/04/08 05:52:35;;;;;;;0.10;0.10;;;12.20;5.90;;;;;;5065923;28;20114;-70
2022/04/08 05:55:01;;;;;;;0.10;0.10;;;12.20;1.00;;;;;;5074060;28;20040;-70
2022/04/08 05:57:27;;;;;;;0.10;0.10;;;12.20;1.00;;;;;;5062527;28;20533;-70
2022/04/08 05:59:59;;;;;;;0.10;0.10;;;12.20;1.00;;;;;;5073641;28;20475;-70
2022/04/08 06:02:25;;;;;;;0.10;0.10;;;12.20;2.20;;;;;;5076086;28;20044;-72
2022/04/08 06:04:51;;;;;;;0.20;0.20;;;12.30;1.00;;;;;;5065828;28;20041;-69
2022/04/08 06:07:18;;;;;;;0.10;0.10;;;12.30;4.40;;;;;;5057572;28;20546;-69
2022/04/08 06:09:43;;;;;;;0.20;0.20;;;12.30;1.00;;;;;;5071767;28;20040;-69
2022/04/08 06:12:09;;;;;;;0.10;0.10;;;12.40;1.00;;;;;;5075798;28;20115;-69
2022/04/08 06:14:35;;;;;;;0.10;0.10;;;12.40;3.10;;;;;;5075833;28;20170;-68
2022/04/08 06:17:01;;;;;;;0.10;0.10;;;12.30;1.00;;;;;;5062649;28;20052;-68
2022/04/08 06:19:27;;;;;;;0.10;0.10;;;12.40;1.00;;;;;;5064454;28;20472;-68
2022/04/08 06:21:54;;;;;;;0.20;0.20;;;12.50;1.00;;;;;;5075998;28;20044;-68
2022/04/08 06:24:20;;;;;;;0.10;0.10;;;12.50;1.00;;;;;;5076379;28;20048;-68
2022/04/08 06:26:46;;;;;;;0.10;0.10;;;12.50;1.00;;;;;;5074654;28;20037;-68
2022/04/08 06:29:12;;;;;;;0.10;0.10;;;12.50;1.00;;;;;;5072189;28;20499;-68
2022/04/08 06:31:37;;;;;;;0.10;0.10;;;12.50;1.00;;;;;;5076309;28;20040;-68
2022/04/08 06:34:03;;;;;;;0.10;0.10;;;12.50;1.00;;;;;;5074541;28;20041;-68
2022/04/08 06:36:29;;;;;;;0.10;0.10;;;12.50;1.00;;;;;;5075687;28;20045;-68
2022/04/08 06:38:55;;;;;;;0.10;0.10;;;12.60;1.00;;;;;;5076229;28;20048;-68
2022/04/08 06:41:22;;;;;;;0.45;0.32;;;12.80;1.00;;;;;;5074328;28;20041;-69
2022/04/08 06:43:48;;;;;;;0.10;0.10;;;12.90;1.00;;;;;;5075806;28;20036;-68
2022/04/08 06:46:13;;;;;;;0.10;0.10;;;12.90;1.00;;;;;;5076154;28;20037;-68
2022/04/08 06:48:39;;;;;;;0.10;0.10;;;13.00;1.00;;;;;;5072685;28;20093;-69
2022/04/08 06:51:05;;;;;;;0.10;0.10;;;13.20;1.00;;;;;;5055888;28;20036;-68
2022/04/08 06:53:35;;;;;;;0.10;0.10;;;13.10;1.00;;;;;;5055622;28;20466;-68
2022/04/08 06:56:03;;;;;;;0.15;0.15;;;13.20;1.00;;;;;;5055592;28;20037;-68
2022/04/08 06:58:30;;;;;;;0.10;0.10;;;13.30;1.00;;;;;;5056016;28;20045;-69
2022/04/08 07:00:57;;;;;;;0.10;0.10;;;13.30;1.00;;;;;;5055321;28;20033;-68
2022/04/08 07:03:23;;;;;;;0.10;0.10;;;13.40;1.00;;;;;;5055904;28;20144;-68
2022/04/08 07:05:49;;;;;;;0.10;0.10;;;13.60;1.00;;;;;;5055693;28;20119;-68
2022/04/08 07:08:15;;;;;;;0.10;0.10;;;13.90;1.00;;;;;;5055710;28;20045;-68
2022/04/08 07:10:41;;;;;;;0.10;0.10;;;13.80;1.00;;;;;;5056057;28;20095;-68
2022/04/08 07:13:07;;;;;;;0.20;0.20;;;13.70;1.00;;;;;;5055787;28;20039;-68
2022/04/08 07:15:33;;;;;;;0.10;0.10;;;13.80;1.00;;;;;;5055698;28;20037;-68
2022/04/08 07:17:59;;;;;;;0.10;0.10;;;14.00;1.00;;;;;;5055437;28;20158;-68
2022/04/08 07:20:26;;;;;;;0.10;0.10;;;14.00;1.00;;;;;;5054786;28;20040;-68
2022/04/08 07:22:53;;;;;;;0.10;0.10;;;13.90;1.00;;;;;;5055656;28;20114;-68
2022/04/08 07:25:19;;;;;;;0.10;0.10;;;14.10;1.00;;;;;;5055664;28;20028;-69
2022/04/08 07:27:50;;;;;;;0.10;0.10;;;14.30;1.00;;;;;;5055802;28;20106;-68
2022/04/08 07:30:21;;;;;;;0.10;0.10;;;14.30;1.00;;;;;;5055344;28;20098;-69
2022/04/08 07:32:50;;;;;;;0.10;0.10;;;14.20;1.00;;;;;;5055319;28;20051;-68
2022/04/08 07:35:16;;;;;;;0.10;0.10;;;14.30;1.00;;;;;;5055363;28;20033;-68
2022/04/08 07:37:42;;;;;;;0.10;0.10;;;14.30;1.00;;;;;;5054958;28;20040;-68
2022/04/08 07:40:10;;;;;;;0.10;0.10;;;14.40;1.00;;;;;;5055385;28;20040;-68
2022/04/08 07:42:36;;;;;;;0.10;0.10;;;14.40;1.00;;;;;;5055401;28;20113;-68
2022/04/08 07:45:03;;;;;;;0.15;0.15;;;14.30;1.00;;;;;;5055381;28;20036;-68
2022/04/08 07:47:29;;;;;;;0.10;0.10;;;14.40;1.00;;;;;;5055235;28;20048;-68
2022/04/08 07:50:00;;;;;;;0.10;0.10;;;14.20;1.00;;;;;;5054995;28;20047;-68
2022/04/08 07:52:28;;;;;;;0.10;0.10;;;14.20;1.00;;;;;;5055542;28;20036;-68
2022/04/08 07:54:55;;;;;;;0.20;0.20;;;14.20;1.00;;;;;;5055109;28;20036;-68
2022/04/08 07:57:21;;;;;;;0.10;0.10;;;14.20;1.00;;;;;;5054914;28;20053;-68
2022/04/08 07:59:47;;;;;;;0.10;0.10;;;14.10;1.00;;;;;;5055120;28;20044;-68
2022/04/08 08:02:15;;;;;;;0.10;0.10;;;14.00;1.00;;;;;;5055350;28;20052;-69
2022/04/08 08:04:41;;;;;;;0.30;0.30;;;14.00;1.00;;;;;;5054996;28;20044;-68
2022/04/08 08:07:07;;;;;;;0.10;0.10;;;14.00;1.00;;;;;;5054664;28;20044;-68
2022/04/08 08:09:33;;;;;;;0.13;0.13;;;14.00;1.00;;;;;;5055174;28;20080;-68
2022/04/08 08:12:03;;;;;;;0.10;0.10;;;14.00;1.00;;;;;;5054532;28;20044;-68
2022/04/08 08:14:29;;;;;;;0.10;0.10;;;14.00;1.00;;;;;;5054714;28;20033;-68
2022/04/08 08:16:55;;;;;;;0.10;0.10;;;13.90;1.00;;;;;;5054765;28;20088;-68
2022/04/08 08:19:22;;;;;;;0.10;0.10;;;13.90;1.00;;;;;;5054862;28;20048;-68
2022/04/08 08:21:48;;;;;;;0.40;0.40;;;13.90;1.00;;;;;;5054991;28;20033;-68
2022/04/08 08:24:13;;;;;;;0.10;0.10;;;14.00;1.00;;;;;;5054701;28;20529;-68
2022/04/08 08:26:40;;;;;;;0.10;0.10;;;14.10;1.00;;;;;;5054422;28;20051;-68
2022/04/08 08:29:06;;;;;;;0.20;0.20;;;14.10;1.00;;;;;;5055413;28;20041;-68
2022/04/08 08:31:32;;;;;;;0.10;0.10;;;14.10;1.00;;;;;;5058434;28;20059;-68
2022/04/08 08:33:58;;;;;;;2.47;0.77;;;14.10;1.00;;;;;;5061011;28;20033;-68
2022/04/08 08:36:24;;;;;;;0.52;0.32;;;14.10;1.00;;;;;;5061187;28;20128;-68
2022/04/08 08:38:51;;;;;;;0.10;0.10;;;14.10;1.00;;;;;;5061290;28;20045;-68
2022/04/08 08:41:20;;;;;;;0.17;0.17;;;14.20;1.00;;;;;;5061029;28;20044;-68
2022/04/08 08:43:47;;;;;;;0.10;0.10;;;14.30;1.00;;;;;;5061179;28;20120;-68
2022/04/08 08:46:15;;;;;;;0.10;0.10;;;14.30;1.00;;;;;;5061138;28;20052;-68
2022/04/08 08:48:44;;;;;;;0.10;0.10;;;14.40;1.00;;;;;;5061085;28;20029;-68
2022/04/08 08:51:11;;;;;;;0.10;0.10;;;14.40;1.00;;;;;;5060941;28;20048;-68
2022/04/08 08:53:37;;;;;;;0.10;0.10;;;14.40;1.00;;;;;;5061423;28;20468;-68
2022/04/08 08:56:05;;;;;;;0.10;0.10;;;14.50;1.00;;;;;;5061099;28;20037;-68
2022/04/08 08:58:34;;;;;;;0.28;0.28;;;14.60;1.00;;;;;;5060758;28;20041;-68
2022/04/08 09:01:00;;;;;;;0.30;0.30;;;14.60;1.00;;;;;;5060340;28;20033;-68
2022/04/08 09:03:29;;;;;;;0.10;0.10;;;14.60;1.00;;;;;;5061125;28;20056;-68
2022/04/08 09:06:04;;;;;;;0.20;0.20;;;14.70;1.00;;;;;;5060801;28;20032;-68
2022/04/08 09:08:38;;;;;;;0.10;0.10;;;14.80;1.00;;;;;;5061077;28;20075;-68
2022/04/08 09:11:05;;;;;;;0.10;0.10;;;14.80;1.00;;;;;;5061058;28;20044;-68
2022/04/08 09:13:41;;;;;;;0.10;0.10;;;14.80;1.00;;;;;;5060977;28;20102;-68
2022/04/08 09:16:07;;;;;;;0.10;0.10;;;14.80;1.00;;;;;;5060672;28;20032;-68
2022/04/08 09:18:37;;;;;;;0.45;0.45;;;14.90;1.00;;;;;;5061215;28;20047;-68
2022/04/08 09:21:03;;;;;;;0.10;0.10;;;14.90;1.00;;;;;;5060602;28;20037;-68
2022/04/08 09:23:33;;;;;;;0.20;0.20;;;15.10;1.00;;;;;;5060983;28;20029;-68
2022/04/08 09:26:04;;;;;;;0.20;0.20;;;15.20;1.00;;;;;;5060824;28;20036;-69
2022/04/08 09:28:34;;;;;;;;;;;15.30;1.00;;;;;;5061365;28;20037;-68
2022/04/08 09:31:02;;;;;;;0.10;0.10;;;15.40;1.00;;;;;;5060385;28;20007;-68
2022/04/08 09:33:29;;;;;;;0.10;0.10;;;15.40;1.00;;;;;;5061036;28;20372;-69
2022/04/08 09:35:56;;;;;;;0.10;0.10;;;15.60;1.00;;;;;;5060765;28;20128;-68
2022/04/08 09:38:27;;;;;;;0.10;0.10;;;15.60;1.00;;;;;;5061222;28;20484;-68
2022/04/08 09:41:08;;;;;;;0.10;0.10;;;15.60;1.00;;;;;;5060885;28;20049;-68
2022/04/08 09:43:36;;;;;;;0.10;0.10;;;15.80;1.00;;;;;;5057106;28;20033;-68
2022/04/08 09:46:19;;;;;;;0.10;0.10;;;15.80;1.00;;;;;;5057396;28;20052;-68
2022/04/08 09:48:46;;;;;;;0.10;0.10;;;16.00;1.00;;;;;;5058329;28;20028;-68
2022/04/08 09:51:23;;;;;;;0.20;0.20;;;15.90;1.00;;;;;;5057566;28;20075;-68
2022/04/08 09:54:02;;;;;;;0.13;0.13;;;16.00;1.00;;;;;;5065197;28;20063;-70
2022/04/08 09:56:29;;;;;;;0.63;0.25;;;15.90;1.00;;;;;;5073389;28;20094;-68
2022/04/08 09:59:10;;;;;;;0.10;0.10;;;15.90;1.00;;;;;;5057617;28;20392;-69
2022/04/08 10:01:36;;;;;;;0.17;0.17;;;16.20;1.00;;;;;;5064025;28;20051;-68
2022/04/08 10:04:07;;;;;;;0.17;0.17;;;16.10;1.00;;;;;;5065555;28;20056;-68
2022/04/08 10:06:41;;;;;;;0.10;0.10;;;16.10;1.00;;;;;;5062900;28;20037;-68
2022/04/08 10:09:10;;;;;;;0.10;0.10;;;16.10;1.00;;;;;;5075804;28;20503;-68
2022/04/08 10:12:07;;;;;;;0.10;0.10;;;16.40;1.00;;;;;;5060443;28;20033;-68
2022/04/08 10:14:48;;;;;;;0.10;0.10;;;16.40;1.00;;;;;;5056533;28;20029;-68
2022/04/08 10:17:15;;;;;;;0.10;0.10;;;16.40;1.00;;;;;;5072022;28;20052;-71
2022/04/08 10:19:40;;;;;;;0.10;0.10;;;16.50;1.00;;;;;;5064489;28;20052;-69
2022/04/08 10:22:17;;;;;;;0.10;0.10;;;16.50;1.00;;;;;;5075772;28;20037;-69
2022/04/08 10:24:55;;;;;;;0.45;0.45;;;16.50;1.00;;;;;;5076195;28;20047;-69
2022/04/08 10:27:34;;;;;;;0.20;0.20;;;16.60;1.00;;;;;;5074856;28;20072;-68
2022/04/08 10:30:00;;;;;;;0.35;0.35;;;16.70;1.00;;;;;;5056772;28;20029;-68
2022/04/08 10:32:39;;;;;;;0.40;0.40;;;16.80;1.00;;;;;;5073564;28;20649;-68
2022/04/08 10:35:16;;;;;;;0.20;0.20;;;16.80;1.00;;;;;;5074477;28;20045;-68
2022/04/08 10:37:53;;;;;;;0.10;0.10;;;16.80;1.00;;;;;;5076822;28;20048;-68
2022/04/08 10:40:20;;;;;;;0.10;0.10;;;17.00;1.00;;;;;;5075976;28;20049;-70
2022/04/08 10:42:56;;;;;;;0.10;0.10;;;17.10;1.00;;;;;;5076600;28;20487;-69
2022/04/08 10:45:22;;;;;;;0.10;0.10;;;17.30;1.00;;;;;;5076000;28;20562;-69
2022/04/08 10:47:49;;;;;;;0.10;0.10;;;17.30;1.00;;;;;;5076005;28;20210;-69
2022/04/08 10:50:25;;;;;;;0.15;0.15;;;17.50;1.00;;;;;;5075780;28;20039;-69
2022/04/08 10:53:07;;;;;;;0.32;0.20;;;17.80;1.00;;;;;;5075994;28;20032;-69
2022/04/08 10:56:09;;;;;;;0.10;0.10;;;18.00;1.00;;;;;;5071865;28;20037;-70
2022/04/08 10:58:46;;;;;;;0.10;0.10;;;18.10;1.00;;;;;;5067316;28;20045;-68
2022/04/08 11:01:22;;;;;;;0.30;0.30;;;18.50;1.00;;;;;;5054300;28;20039;-69
2022/04/08 11:04:02;;;;;;;0.63;0.63;;;18.70;1.00;;;;;;5055100;28;20072;-69
2022/04/08 11:06:29;;;;;;;0.10;0.10;;;18.80;1.00;;;;;;5064210;28;20040;-69
2022/04/08 11:08:57;;;;;;;0.43;0.43;;;18.60;1.00;;;;;;5055306;28;20147;-69
2022/04/08 11:11:30;;;;;;;0.20;0.20;;;18.50;1.00;;;;;;5056416;28;20036;-69
2022/04/08 11:13:57;;;;;;;0.10;0.10;;;18.30;1.00;;;;;;5054718;28;20045;-69
2022/04/08 11:16:23;;;;;;;0.10;0.10;;;18.30;1.00;;;;;;5054673;28;20045;-69
2022/04/08 11:18:49;;;;;;;0.15;0.15;;;18.10;1.00;;;;;;5053126;28;20412;-69
2022/04/08 11:21:18;;;;;;;0.10;0.10;;;17.90;1.00;;;;;;5055295;28;20033;-69
2022/04/08 11:23:55;;;;;;;0.20;0.20;;;18.00;1.00;;;;;;5055018;28;20098;-68
2022/04/08 11:26:20;;;;;;;0.32;0.32;;;18.20;1.00;;;;;;5058694;28;20090;-68
2022/04/08 11:28:47;;;;;;;0.10;0.10;;;18.10;1.00;;;;;;5054234;28;20041;-68
2022/04/08 11:31:18;;;;;;;2.50;0.75;;;18.30;1.00;;;;;;5054722;28;20036;-68
2022/04/08 11:33:44;;;;;;;0.10;0.10;;;18.20;1.00;;;;;;5056028;28;20119;-68
2022/04/08 11:36:10;;;;;;;0.10;0.10;;;18.20;1.00;;;;;;5055170;28;20456;-68
2022/04/08 11:38:36;;;;;;;0.20;0.20;;;18.10;1.00;;;;;;5055030;28;20049;-68
2022/04/08 11:41:04;;;;;;;0.10;0.10;;;18.10;1.00;;;;;;5055475;28;20110;-68
2022/04/08 11:43:30;;;;;;;0.10;0.10;;;18.00;1.00;;;;;;5055496;28;20102;-69
2022/04/08 11:45:57;;;;;;;0.10;0.10;;;18.00;1.00;;;;;;5055240;28;20033;-68
2022/04/08 11:48:23;;;;;;;0.22;0.22;;;18.10;1.00;;;;;;5055234;28;20052;-68
2022/04/08 11:50:50;;;;;;;0.10;0.10;;;18.00;1.00;;;;;;5055061;28;20041;-68
2022/04/08 11:53:18;;;;;;;0.10;0.10;;;18.00;1.00;;;;;;5055187;28;20041;-68
2022/04/08 11:55:59;;;;;;;0.20;0.20;;;18.30;1.00;;;;;;5055323;28;20186;-68
2022/04/08 11:58:27;;;;;;;1.67;0.40;;;18.60;1.00;;;;;;5055519;28;20044;-68
2022/04/08 12:00:53;;;;;;;0.10;0.10;;;18.90;1.00;;;;;;5050285;28;20037;-68
2022/04/08 12:03:26;;;;;;;0.20;0.20;;;18.80;1.00;;;;;;5054447;28;20056;-69
2022/04/08 12:05:52;;;;;;;0.40;0.40;;;18.90;1.00;;;;;;5053326;28;20052;-68
2022/04/08 12:08:20;;;;;;;0.20;0.20;;;18.70;1.00;;;;;;5053528;28;20407;-68
2022/04/08 12:10:54;;;;;;;0.40;0.40;;;18.90;1.00;;;;;;5054575;28;20047;-68
2022/04/08 12:13:24;;;;;;;0.90;0.82;;;19.30;1.00;;;;;;5054672;28;20037;-68
2022/04/08 12:15:54;;;;;;;0.20;0.20;;;19.30;1.00;;;;;;5053535;28;20045;-68
2022/04/08 12:18:27;;;;;;;0.43;0.43;;;19.20;1.00;;;;;;5054489;28;20045;-68
2022/04/08 12:20:55;;;;;;;0.28;0.28;;;19.20;1.00;;;;;;5053146;28;20080;-68
2022/04/08 12:23:23;;;;;;;1.48;0.63;;;19.40;1.00;;;;;;5053127;28;20041;-68
2022/04/08 12:25:57;;;;;;;0.10;0.10;;;19.50;1.00;;;;;;5054089;28;20041;-68
2022/04/08 12:28:25;;;;;;;0.20;0.20;;;19.50;1.00;;;;;;5053643;28;20048;-68
2022/04/08 12:30:52;;;;;;;0.10;0.10;;;19.60;1.00;;;;;;5053853;28;20041;-68
2022/04/08 12:33:18;;;;;;;0.32;0.32;;;19.40;1.00;;;;;;5060587;28;20036;-68
2022/04/08 12:35:48;;;;;;;0.10;0.10;;;19.20;1.00;;;;;;5059474;28;20041;-68
2022/04/08 12:38:19;;;;;;;0.10;0.10;;;19.10;1.00;;;;;;5054094;28;20120;-70
2022/04/08 12:40:46;;;;;;;0.20;0.20;;;18.90;1.00;;;;;;5055115;28;20183;-71
2022/04/08 12:43:12;;;;;;;0.10;0.10;;;18.90;1.00;;;;;;5051452;28;20087;-70
2022/04/08 12:45:38;;;;;;;0.10;0.10;;;19.00;1.00;;;;;;5054041;28;20033;-70
2022/04/08 12:48:05;;;;;;;0.20;0.20;;;19.20;1.00;;;;;;5054221;28;20487;-70
2022/04/08 12:50:32;;;;;;;0.20;0.20;;;19.70;1.00;;;;;;5054696;28;20071;-71
2022/04/08 12:52:58;;;;;;;0.10;0.10;;;19.90;1.00;;;;;;5054263;28;20491;-71
2022/04/08 12:55:24;;;;;;;0.68;0.47;;;20.00;1.00;;;;;;5054146;28;20124;-71
2022/04/08 12:57:50;;;;;;;0.10;0.10;;;19.90;99.90;;;;;;5054091;28;20143;-71